createdAt,value
2023-02-15T00:00:04.101Z,24.80
2023-02-15T00:02:37.758Z,25.10
2023-02-15T00:05:10.047Z,24.27
2023-02-15T00:07:42.776Z,24.48
2023-02-15T00:10:15.033Z,24.50
2023-02-15T00:12:47.728Z,27.20
2023-02-15T00:15:19.565Z,23.80
2023-02-15T00:17:52.337Z,23.42
2023-02-15T00:20:24.174Z,23.88
2023-02-15T00:22:56.879Z,23.67
2023-02-15T00:25:29.238Z,22.20
2023-02-15T00:28:01.948Z,22.63
2023-02-15T00:30:33.917Z,23.17
2023-02-15T00:33:06.969Z,23.73
2023-02-15T00:35:38.927Z,23.25
2023-02-15T00:38:12.226Z,23.25
2023-02-15T00:40:44.242Z,22.30
2023-02-15T00:43:16.970Z,22.23
2023-02-15T00:45:49.260Z,24.63
2023-02-15T00:48:23.397Z,22.52
2023-02-15T00:50:58.811Z,23.63
2023-02-15T00:53:31.886Z,22.90
2023-02-15T00:56:04.131Z,24.27
2023-02-15T00:58:37.053Z,24.15
2023-02-15T01:01:12.993Z,23.77
2023-02-15T01:03:47.897Z,25.10
2023-02-15T01:06:20.011Z,23.73
2023-02-15T01:08:53.471Z,22.77
2023-02-15T01:11:25.586Z,22.02
2023-02-15T01:13:59.496Z,19.58
2023-02-15T01:16:31.436Z,18.77
2023-02-15T01:19:05.132Z,19.17
2023-02-15T01:21:37.213Z,20.00
2023-02-15T01:24:16.464Z,23.58
2023-02-15T01:26:48.300Z,23.65
2023-02-15T01:29:21.097Z,22.88
2023-02-15T01:31:53.035Z,21.83
2023-02-15T01:34:25.807Z,22.88
2023-02-15T01:36:57.640Z,28.15
2023-02-15T01:39:30.358Z,27.17
2023-02-15T01:42:02.258Z,26.38
2023-02-15T01:45:02.618Z,25.67
2023-02-15T01:47:43.966Z,25.30
2023-02-15T01:50:42.166Z,26.77
2023-02-15T01:53:31.261Z,24.88
2023-02-15T01:56:11.482Z,24.08
2023-02-15T01:58:44.527Z,23.17
2023-02-15T02:01:17.921Z,22.10
2023-02-15T02:04:17.467Z,24.38
2023-02-15T02:06:52.097Z,23.17
2023-02-15T02:09:24.058Z,23.98
2023-02-15T02:11:57.050Z,22.90
2023-02-15T02:14:29.332Z,22.10
2023-02-15T02:17:23.702Z,23.63
2023-02-15T02:20:27.702Z,23.73
2023-02-15T02:23:25.245Z,24.08
2023-02-15T02:26:28.004Z,22.97
2023-02-15T02:34:02.832Z,25.15
2023-02-15T02:36:58.996Z,23.35
2023-02-15T02:39:57.312Z,24.75
2023-02-15T02:42:44.963Z,23.63
2023-02-15T02:45:25.401Z,23.55
2023-02-15T02:48:05.540Z,24.75
2023-02-15T02:50:41.395Z,23.35
2023-02-15T02:56:35.374Z,21.63
2023-02-15T02:59:15.412Z,20.15
2023-02-15T03:02:14.222Z,20.35
2023-02-15T03:04:59.521Z,19.52
2023-02-15T03:07:34.944Z,20.08
2023-02-15T03:10:09.429Z,18.10
2023-02-15T03:12:42.933Z,20.77
2023-02-15T03:15:26.931Z,20.73
2023-02-15T03:18:03.749Z,22.15
2023-02-15T03:23:33.454Z,20.57
2023-02-15T03:26:09.562Z,21.83
2023-02-15T03:28:46.823Z,22.30
2023-02-15T03:31:22.894Z,21.08
2023-02-15T03:34:03.016Z,21.75
2023-02-15T03:36:46.524Z,20.40
2023-02-15T03:39:40.574Z,20.42
2023-02-15T03:42:24.220Z,20.48
2023-02-15T03:45:17.078Z,20.67
2023-02-15T03:47:53.489Z,20.70
2023-02-15T03:50:50.913Z,21.63
2023-02-15T03:53:25.292Z,23.27
2023-02-15T03:55:57.650Z,22.17
2023-02-15T03:58:48.406Z,22.25
2023-02-15T04:01:53.507Z,22.20
2023-02-15T04:04:38.431Z,21.13
2023-02-15T04:07:11.610Z,21.65
2023-02-15T04:10:01.855Z,22.98
2023-02-15T04:12:34.653Z,21.05
2023-02-15T04:15:25.882Z,21.92
2023-02-15T04:17:58.605Z,21.33
2023-02-15T04:24:22.326Z,22.50
2023-02-15T04:26:55.196Z,23.10
2023-02-15T04:29:29.022Z,21.55
2023-02-15T04:32:03.441Z,22.47
2023-02-15T04:34:35.363Z,22.38
2023-02-15T04:37:08.026Z,22.90
2023-02-15T04:39:39.876Z,23.05
2023-02-15T04:42:12.600Z,22.45
2023-02-15T04:44:45.324Z,21.67
2023-02-15T04:47:17.656Z,21.08
2023-02-15T04:49:50.772Z,20.60
2023-02-15T04:52:23.532Z,20.35
2023-02-15T04:54:55.593Z,20.27
2023-02-15T04:57:28.344Z,20.53
2023-02-15T05:00:00.355Z,21.30
2023-02-15T05:02:33.869Z,21.38
2023-02-15T05:05:06.665Z,20.73
2023-02-15T05:07:39.781Z,20.25
2023-02-15T05:10:11.802Z,19.57
2023-02-15T05:12:44.661Z,18.90
2023-02-15T05:15:17.530Z,18.15
2023-02-15T05:17:49.766Z,17.33
2023-02-15T05:20:21.651Z,17.85
2023-02-15T05:22:57.355Z,12.03
2023-02-15T05:25:47.444Z,18.25
2023-02-15T05:28:20.252Z,18.17
2023-02-15T05:31:14.968Z,17.83
2023-02-15T05:33:47.825Z,18.30
2023-02-15T05:36:19.696Z,18.37
2023-02-15T05:38:52.394Z,18.50
2023-02-15T05:41:25.064Z,16.50
2023-02-15T05:43:58.245Z,15.07
2023-02-15T05:46:30.204Z,13.77
2023-02-15T05:49:05.223Z,13.20
2023-02-15T05:51:37.056Z,13.70
2023-02-15T05:54:09.810Z,13.77
2023-02-15T05:56:43.124Z,13.50
2023-02-15T05:59:15.510Z,14.18
2023-02-15T06:01:48.616Z,14.47
2023-02-15T06:04:20.771Z,14.40
2023-02-15T06:09:46.885Z,13.93
2023-02-15T06:12:19.218Z,14.07
2023-02-15T06:14:51.581Z,15.67
2023-02-15T06:17:24.117Z,13.90
2023-02-15T06:19:56.835Z,14.35
2023-02-15T06:22:28.728Z,13.75
2023-02-15T06:25:01.760Z,13.73
2023-02-15T06:27:33.637Z,13.87
2023-02-15T06:33:00.528Z,14.63
2023-02-15T06:35:33.322Z,15.63
2023-02-15T06:38:05.196Z,14.93
2023-02-15T06:40:37.961Z,16.30
2023-02-15T06:43:09.845Z,15.38
2023-02-15T06:45:43.659Z,15.02
2023-02-15T06:48:16.498Z,15.45
2023-02-15T06:50:48.875Z,14.73
2023-02-15T06:53:40.509Z,14.13
2023-02-15T06:56:12.831Z,14.75
2023-02-15T06:58:47.616Z,14.30
2023-02-15T07:07:13.929Z,14.20
2023-02-15T07:09:46.571Z,15.00
2023-02-15T07:12:43.777Z,16.05
2023-02-15T07:15:20.404Z,16.52
2023-02-15T07:17:52.349Z,15.43
2023-02-15T07:20:25.651Z,15.63
2023-02-15T07:22:58.931Z,15.82
2023-02-15T07:25:31.078Z,15.05
2023-02-15T07:28:07.062Z,15.73
2023-02-15T07:30:39.424Z,16.58
2023-02-15T07:33:29.520Z,17.50
2023-02-15T07:36:05.092Z,17.08
2023-02-15T07:38:41.786Z,17.35
2023-02-15T07:44:17.104Z,17.65
2023-02-15T07:46:50.805Z,18.67
2023-02-15T07:49:22.835Z,19.45
2023-02-15T07:51:55.872Z,17.73
2023-02-15T07:54:28.571Z,17.48
2023-02-15T07:57:02.730Z,19.10
2023-02-15T07:59:36.857Z,17.60
2023-02-15T08:02:12.344Z,16.40
2023-02-15T08:04:45.331Z,10.77
2023-02-15T08:07:17.164Z,10.05
2023-02-15T08:09:50.819Z,13.05
2023-02-15T08:12:22.723Z,14.07
2023-02-15T08:14:56.006Z,16.38
2023-02-15T08:17:27.923Z,18.02
2023-02-15T08:20:01.431Z,18.73
2023-02-15T08:22:33.330Z,18.63
2023-02-15T08:25:28.412Z,18.40
2023-02-15T08:28:00.819Z,17.95
2023-02-15T08:30:35.817Z,19.73
2023-02-15T08:33:08.803Z,19.08
2023-02-15T08:35:41.751Z,18.00
2023-02-15T08:38:15.293Z,17.90
2023-02-15T08:40:49.363Z,19.00
2023-02-15T08:43:21.200Z,21.65
2023-02-15T08:45:54.746Z,19.70
2023-02-15T08:48:26.706Z,21.35
2023-02-15T08:51:00.163Z,20.30
2023-02-15T08:53:33.119Z,19.60
2023-02-15T08:59:02.354Z,19.95
2023-02-15T09:01:39.086Z,20.17
2023-02-15T09:04:12.496Z,18.43
2023-02-15T09:06:48.833Z,18.35
2023-02-15T09:09:39.901Z,19.15
2023-02-15T09:12:13.249Z,17.48
2023-02-15T09:14:45.413Z,18.98
2023-02-15T09:17:39.936Z,18.00
2023-02-15T09:20:12.281Z,17.55
2023-02-15T09:25:40.427Z,17.70
2023-02-15T09:28:13.800Z,18.02
2023-02-15T09:30:45.846Z,16.63
2023-02-15T09:33:19.648Z,17.17
2023-02-15T09:35:51.580Z,17.45
2023-02-15T09:38:24.411Z,17.33
2023-02-15T09:41:57.056Z,16.55
2023-02-15T09:45:12.602Z,17.83
2023-02-15T09:47:56.068Z,20.20
2023-02-15T09:51:08.802Z,18.75
2023-02-15T09:54:24.186Z,18.92
2023-02-15T09:57:12.439Z,19.20
2023-02-15T10:03:26.674Z,19.77
2023-02-15T10:06:26.021Z,17.95
2023-02-15T10:09:30.439Z,17.35
2023-02-15T10:12:06.078Z,17.90
2023-02-15T10:15:02.506Z,16.63
2023-02-15T10:18:27.834Z,16.27
2023-02-15T10:24:42.602Z,16.20
2023-02-15T10:27:23.422Z,16.13
2023-02-15T10:30:11.040Z,15.07
2023-02-15T10:33:05.874Z,17.30
2023-02-15T10:36:33.192Z,17.10
2023-02-15T10:40:00.689Z,18.20
2023-02-15T10:43:09.975Z,17.67
2023-02-15T10:46:05.474Z,17.50
2023-02-15T10:48:56.624Z,16.13
2023-02-15T10:51:54.749Z,19.20
2023-02-15T10:54:51.667Z,17.90
2023-02-15T10:57:59.291Z,16.88
2023-02-15T11:00:48.908Z,17.40
2023-02-15T11:03:42.599Z,17.75
2023-02-15T11:06:19.641Z,18.00
2023-02-15T11:09:01.204Z,17.20
2023-02-15T11:11:43.610Z,16.45
2023-02-15T11:14:34.476Z,16.33
2023-02-15T11:17:28.255Z,16.83
2023-02-15T11:20:31.847Z,15.27
2023-02-15T11:23:08.170Z,15.30
2023-02-15T11:25:40.542Z,15.98
2023-02-15T11:28:24.609Z,16.77
2023-02-15T11:30:59.907Z,15.15
2023-02-15T11:33:42.922Z,17.00
2023-02-15T11:36:23.565Z,14.73
2023-02-15T11:39:21.948Z,16.20
2023-02-15T11:42:00.399Z,14.40
2023-02-15T11:44:46.948Z,14.60
2023-02-15T11:47:19.738Z,15.95
2023-02-15T11:49:51.746Z,16.02
2023-02-15T11:52:24.424Z,14.43
2023-02-15T11:54:56.852Z,14.80
2023-02-15T11:57:33.231Z,14.88
2023-02-15T12:00:17.683Z,15.82
2023-02-15T12:02:55.860Z,16.27
2023-02-15T12:05:28.559Z,16.98
2023-02-15T12:08:22.875Z,15.63
2023-02-15T12:11:17.260Z,16.15
2023-02-15T12:14:04.129Z,15.80
2023-02-15T12:16:48.198Z,17.15
2023-02-15T12:19:33.741Z,16.52
2023-02-15T12:22:10.344Z,17.00
2023-02-15T12:24:48.866Z,15.88
2023-02-15T12:27:30.556Z,18.05
2023-02-15T12:30:08.685Z,17.13
2023-02-15T12:33:01.527Z,16.90
2023-02-15T12:35:36.872Z,17.47
2023-02-15T12:38:12.224Z,19.58
2023-02-15T12:41:04.342Z,20.75
2023-02-15T12:43:39.390Z,19.83
2023-02-15T12:46:26.993Z,17.83
2023-02-15T12:49:21.547Z,18.23
2023-02-15T12:52:00.476Z,17.33
2023-02-15T12:54:41.837Z,17.45
2023-02-15T12:57:30.349Z,19.25
2023-02-15T13:00:28.905Z,17.85
2023-02-15T13:03:02.752Z,17.43
2023-02-15T13:05:45.248Z,17.60
2023-02-15T13:08:22.484Z,18.02
2023-02-15T13:11:10.875Z,18.60
2023-02-15T13:14:01.046Z,19.15
2023-02-15T13:16:40.521Z,17.17
2023-02-15T13:19:33.010Z,17.05
2023-02-15T13:22:13.714Z,18.20
2023-02-15T13:24:55.823Z,17.50
2023-02-15T13:27:38.402Z,16.73
2023-02-15T13:30:30.790Z,17.50
2023-02-15T13:33:32.307Z,17.27
2023-02-15T13:36:21.462Z,16.45
2023-02-15T13:39:45.903Z,17.15
2023-02-15T13:42:29.790Z,17.25
2023-02-15T13:45:26.724Z,17.00
2023-02-15T13:48:21.734Z,16.90
2023-02-15T13:51:14.994Z,18.00
2023-02-15T13:54:35.892Z,17.38
2023-02-15T13:57:35.523Z,16.70
2023-02-15T14:00:50.787Z,16.30
2023-02-15T14:04:23.476Z,15.93
2023-02-15T14:07:43.843Z,15.68
2023-02-15T14:10:31.750Z,16.27
2023-02-15T14:13:39.158Z,16.65
2023-02-15T14:17:05.465Z,17.27
2023-02-15T14:19:47.083Z,16.92
2023-02-15T14:22:37.720Z,17.52
2023-02-15T14:25:47.493Z,17.58
2023-02-15T14:29:06.076Z,17.90
2023-02-15T14:31:49.171Z,16.60
2023-02-15T14:34:36.464Z,16.38
2023-02-15T14:37:13.308Z,17.38
2023-02-15T14:40:51.119Z,16.67
2023-02-15T14:43:38.687Z,16.67
2023-02-15T14:46:13.493Z,16.97
2023-02-15T14:48:59.562Z,18.00
2023-02-15T14:51:46.933Z,17.90
2023-02-15T14:54:19.813Z,18.02
2023-02-15T14:57:03.918Z,17.45
2023-02-15T14:59:36.224Z,20.10
2023-02-15T15:02:08.019Z,17.80
2023-02-15T15:05:13.690Z,18.85
2023-02-15T15:07:57.185Z,17.33
2023-02-15T15:10:35.789Z,18.67
2023-02-15T15:13:39.017Z,17.43
2023-02-15T15:16:37.145Z,16.77
2023-02-15T15:19:13.480Z,17.48
2023-02-15T15:21:53.011Z,17.35
2023-02-15T15:24:40.198Z,17.58
2023-02-15T15:27:49.875Z,16.43
2023-02-15T15:30:22.460Z,17.65
2023-02-15T15:32:57.757Z,15.45
2023-02-15T15:36:01.432Z,17.35
2023-02-15T15:39:28.164Z,16.85
2023-02-15T15:42:34.835Z,16.57
2023-02-15T15:45:58.177Z,17.38
2023-02-15T15:48:41.392Z,17.75
2023-02-15T15:51:21.909Z,17.40
2023-02-15T15:53:54.849Z,18.27
2023-02-15T15:56:35.005Z,18.57
2023-02-15T15:59:15.639Z,18.27
2023-02-15T16:01:49.440Z,18.73
2023-02-15T16:04:31.844Z,17.58
2023-02-15T16:07:19.510Z,18.27
2023-02-15T16:10:04.041Z,18.17
2023-02-15T16:12:38.473Z,18.55
2023-02-15T16:15:25.237Z,18.48
2023-02-15T16:17:59.838Z,18.88
2023-02-15T16:20:37.900Z,19.45
2023-02-15T16:23:41.541Z,19.63
2023-02-15T16:26:57.240Z,18.80
2023-02-15T16:29:33.082Z,19.65
2023-02-15T16:32:20.719Z,19.58
2023-02-15T16:34:53.492Z,19.38
2023-02-15T16:37:37.636Z,19.13
2023-02-15T16:40:25.080Z,18.58
2023-02-15T16:43:03.363Z,18.60
2023-02-15T16:45:38.644Z,20.27
2023-02-15T16:48:20.821Z,18.80
2023-02-15T16:50:57.467Z,21.13
2023-02-15T16:53:30.890Z,19.73
2023-02-15T16:56:06.294Z,20.73
2023-02-15T16:58:44.502Z,20.50
2023-02-15T17:01:17.338Z,19.77
2023-02-15T17:04:14.822Z,19.70
2023-02-15T17:07:17.697Z,20.35
2023-02-15T17:09:55.256Z,20.15
2023-02-15T17:12:56.789Z,20.38
2023-02-15T17:15:37.662Z,20.55
2023-02-15T17:18:18.695Z,20.57
2023-02-15T17:20:55.697Z,22.00
2023-02-15T17:23:41.879Z,21.67
2023-02-15T17:26:23.799Z,22.45
2023-02-15T17:29:16.288Z,22.50
2023-02-15T17:31:52.352Z,23.87
2023-02-15T17:34:44.589Z,22.65
2023-02-15T17:37:28.967Z,21.33
2023-02-15T17:40:11.308Z,22.42
2023-02-15T17:42:43.228Z,23.23
2023-02-15T17:45:17.084Z,23.83
2023-02-15T17:47:50.277Z,23.17
2023-02-15T17:50:29.373Z,23.35
2023-02-15T17:53:02.057Z,23.30
2023-02-15T17:55:41.542Z,22.95
2023-02-15T17:58:15.082Z,27.20
2023-02-15T18:01:10.151Z,24.05
2023-02-15T18:04:11.884Z,23.77
2023-02-15T18:07:03.903Z,23.27
2023-02-15T18:09:54.809Z,20.17
2023-02-15T18:12:39.439Z,18.17
2023-02-15T18:15:13.139Z,17.05
2023-02-15T18:17:47.970Z,15.50
2023-02-15T18:20:24.988Z,16.42
2023-02-15T18:22:57.406Z,15.40
2023-02-15T18:25:29.621Z,14.70
2023-02-15T18:28:02.053Z,13.15
2023-02-15T18:30:34.233Z,13.07
2023-02-15T18:33:06.708Z,14.18
2023-02-15T18:35:39.097Z,15.60
2023-02-15T18:38:13.751Z,16.13
2023-02-15T18:40:46.130Z,15.32
2023-02-15T18:43:18.492Z,17.67
2023-02-15T18:45:51.539Z,17.65
2023-02-15T18:48:24.761Z,18.35
2023-02-15T18:50:57.609Z,17.90
2023-02-15T18:53:30.181Z,18.85
2023-02-15T18:56:03.202Z,18.65
2023-02-15T18:58:35.481Z,19.67
2023-02-15T19:01:17.148Z,18.42
2023-02-15T19:03:51.378Z,18.13
2023-02-15T19:06:25.394Z,10.48
2023-02-15T19:08:57.337Z,9.75
2023-02-15T19:11:30.597Z,11.25
2023-02-15T19:14:02.518Z,10.32
2023-02-15T19:16:36.989Z,9.93
2023-02-15T19:19:09.327Z,9.80
2023-02-15T19:21:42.872Z,9.32
2023-02-15T19:24:25.475Z,9.70
2023-02-15T19:26:58.284Z,8.48
2023-02-15T19:29:30.988Z,8.13
2023-02-15T19:32:04.757Z,7.40
2023-02-15T19:34:37.395Z,8.02
2023-02-15T19:37:25.882Z,8.40
2023-02-15T19:39:58.270Z,7.45
2023-02-15T19:42:32.615Z,7.17
2023-02-15T19:45:18.110Z,7.70
2023-02-15T19:47:52.803Z,7.90
2023-02-15T19:50:29.938Z,7.30
2023-02-15T19:53:02.873Z,7.07
2023-02-15T19:55:38.238Z,6.97
2023-02-15T19:58:14.309Z,12.90
2023-02-15T20:00:48.974Z,15.70
2023-02-15T20:03:22.399Z,20.45
2023-02-15T20:05:54.588Z,20.00
2023-02-15T20:08:27.395Z,10.73
2023-02-15T20:10:59.802Z,9.57
2023-02-15T20:13:31.755Z,7.90
2023-02-15T20:16:08.347Z,7.50
2023-02-15T20:18:45.084Z,8.77
2023-02-15T20:21:19.485Z,16.30
2023-02-15T20:23:51.922Z,21.50
2023-02-15T20:26:29.993Z,21.05
2023-02-15T20:29:02.440Z,23.10
2023-02-15T20:31:35.602Z,24.15
2023-02-15T20:34:07.575Z,23.83
2023-02-15T20:36:41.018Z,23.83
2023-02-15T20:39:19.909Z,10.18
2023-02-15T20:41:52.751Z,12.05
2023-02-15T20:44:29.031Z,22.90
2023-02-15T20:47:02.984Z,24.10
2023-02-15T20:49:38.157Z,24.13
2023-02-15T20:52:22.039Z,23.23
2023-02-15T20:54:54.361Z,20.40
2023-02-15T20:57:26.311Z,16.20
2023-02-15T20:59:59.458Z,12.97
2023-02-15T21:02:31.842Z,8.50
2023-02-15T21:05:05.986Z,6.75
2023-02-15T21:07:40.109Z,9.07
2023-02-15T21:10:30.739Z,7.55
2023-02-15T21:13:04.921Z,19.23
2023-02-15T21:15:41.588Z,21.92
2023-02-15T21:18:22.943Z,19.95
2023-02-15T21:20:58.864Z,17.70
2023-02-15T21:23:41.655Z,19.23
2023-02-15T21:26:21.437Z,18.53
2023-02-15T21:28:55.465Z,18.13
2023-02-15T21:31:28.646Z,18.42
2023-02-15T21:34:02.051Z,15.75
2023-02-15T21:36:34.211Z,16.92
2023-02-15T21:39:09.590Z,16.97
2023-02-15T21:42:00.933Z,12.55
2023-02-15T21:44:52.126Z,18.05
2023-02-15T21:47:46.530Z,18.70
2023-02-15T21:50:41.969Z,16.50
2023-02-15T21:53:22.601Z,14.57
2023-02-15T21:55:58.791Z,14.40
2023-02-15T21:58:34.593Z,15.13
2023-02-15T22:01:07.802Z,13.60
2023-02-15T22:03:39.898Z,16.52
2023-02-15T22:06:14.103Z,14.70
2023-02-15T22:08:47.946Z,20.20
2023-02-15T22:11:24.970Z,19.08
2023-02-15T22:13:58.917Z,18.60
2023-02-15T22:16:32.048Z,15.57
2023-02-15T22:19:04.894Z,6.23
2023-02-15T22:21:37.243Z,12.02
2023-02-15T22:24:09.396Z,14.63
2023-02-15T22:26:42.207Z,15.25
2023-02-15T22:29:17.245Z,14.93
2023-02-15T22:31:50.146Z,16.67
2023-02-15T22:34:32.219Z,15.50
2023-02-15T22:37:04.521Z,15.20
2023-02-15T22:39:36.860Z,10.10
2023-02-15T22:42:27.369Z,6.30
2023-02-15T22:45:00.175Z,10.40
2023-02-15T22:47:35.796Z,13.13
2023-02-15T22:50:25.496Z,7.60
2023-02-15T22:53:00.787Z,6.07
2023-02-15T22:55:36.986Z,5.18
2023-02-15T22:58:19.183Z,6.50
2023-02-15T23:00:51.616Z,5.00
2023-02-15T23:03:29.325Z,5.15
2023-02-15T23:06:01.321Z,5.20
2023-02-15T23:08:34.053Z,5.68
2023-02-15T23:11:10.660Z,4.73
2023-02-15T23:13:42.893Z,4.55
2023-02-15T23:16:18.088Z,5.50
2023-02-15T23:18:50.250Z,4.53
2023-02-15T23:21:32.849Z,5.25
2023-02-15T23:24:29.316Z,4.67
2023-02-15T23:27:20.575Z,7.60
2023-02-15T23:29:52.482Z,4.53
2023-02-15T23:32:25.196Z,4.10
2023-02-15T23:34:57.091Z,4.80
2023-02-15T23:37:29.790Z,5.07
2023-02-15T23:40:20.663Z,5.65
2023-02-15T23:42:53.335Z,5.47
2023-02-15T23:45:25.426Z,6.13
2023-02-15T23:48:16.459Z,4.45
2023-02-15T23:50:48.321Z,5.00
2023-02-15T23:53:21.055Z,4.70
2023-02-15T23:55:53.638Z,4.32
2023-02-15T23:58:35.958Z,4.30
